Time;durP1;ratioP1;P1;durP2;ratioP2;P2;SDS_P1;SDS_P2;PMS_P1;PMS_P2;Temp;Humidity;BMP_temperature;BMP_pressure;BME280_temperature;BME280_humidity;BME280_pressure;Samples;Min_cycle;Max_cycle;Signal;HPM_P1;HPM_P2
2022/10/08 00:01:07;;;;;;;6.83;4.70;;;11.20;99.90;;;;;;4941825;29;20204;-71
2022/10/08 00:03:36;;;;;;;6.97;5.00;;;11.20;99.90;;;;;;4923078;29;20295;-72
2022/10/08 00:06:05;;;;;;;9.63;5.80;;;11.20;99.90;;;;;;4922768;29;20208;-71
2022/10/08 00:08:34;;;;;;;9.03;5.30;;;11.10;99.90;;;;;;4914542;29;20210;-71
2022/10/08 00:11:13;;;;;;;6.27;4.93;;;11.10;99.90;;;;;;4920294;29;20285;-70
2022/10/08 00:13:40;;;;;;;5.70;5.20;;;11.10;99.90;;;;;;4916027;29;20216;-70
2022/10/08 00:16:08;;;;;;;6.50;4.87;;;11.10;99.90;;;;;;4933711;29;20482;-71
2022/10/08 00:18:33;;;;;;;8.80;4.17;;;11.00;99.90;;;;;;4909678;29;20664;-70
2022/10/08 00:21:13;;;;;;;6.73;5.03;;;11.00;99.90;;;;;;4938019;29;20197;-69
2022/10/08 00:23:40;;;;;;;8.37;5.17;;;11.00;99.90;;;;;;4910016;29;20237;-70
2022/10/08 00:26:06;;;;;;;5.77;4.80;;;10.90;99.90;;;;;;4935818;29;20597;-70
2022/10/08 00:28:33;;;;;;;5.23;4.73;;;10.90;99.90;;;;;;4922331;28;20603;-70
2022/10/08 00:31:08;;;;;;;7.33;4.83;;;10.80;99.90;;;;;;4938029;29;20249;-70
2022/10/08 00:33:35;;;;;;;6.63;4.83;;;10.80;99.90;;;;;;4917548;28;20233;-70
2022/10/08 00:36:04;;;;;;;7.87;5.17;;;10.80;99.90;;;;;;4924748;29;20629;-70
2022/10/08 00:38:29;;;;;;;8.30;5.73;;;10.80;99.90;;;;;;4912276;29;20567;-70
2022/10/08 00:40:55;;;;;;;9.10;4.67;;;10.70;99.90;;;;;;4927534;29;20191;-71
2022/10/08 00:43:45;;;;;;;6.13;5.20;;;10.70;99.90;;;;;;4923959;29;20679;-68
2022/10/08 00:46:18;;;;;;;5.80;4.67;;;10.70;99.90;;;;;;4910875;29;20322;-71
2022/10/08 00:48:44;;;;;;;5.07;4.63;;;10.70;99.90;;;;;;4916999;29;20571;-70
2022/10/08 00:51:10;;;;;;;7.07;5.23;;;10.70;99.90;;;;;;4947854;29;20223;-78
2022/10/08 00:53:35;;;;;;;5.63;5.07;;;10.70;99.90;;;;;;4924889;28;20569;-70
2022/10/08 00:56:02;;;;;;;8.07;4.73;;;10.70;99.90;;;;;;4940362;29;20627;-70
2022/10/08 00:58:29;;;;;;;10.87;6.07;;;10.70;99.90;;;;;;4914993;29;20208;-71
2022/10/08 01:00:56;;;;;;;7.57;5.17;;;10.70;99.90;;;;;;4938116;29;20236;-71
2022/10/08 01:03:22;;;;;;;6.50;4.97;;;10.70;99.90;;;;;;4921792;29;20217;-70
2022/10/08 01:05:58;;;;;;;6.53;4.50;;;10.70;99.90;;;;;;4930127;29;20199;-70
2022/10/08 01:08:49;;;;;;;6.40;4.90;;;10.70;99.90;;;;;;4908795;29;20229;-70
2022/10/08 01:11:43;;;;;;;7.20;5.30;;;10.70;99.90;;;;;;4918513;29;20249;-71
2022/10/08 01:14:29;;;;;;;7.07;4.83;;;10.70;99.90;;;;;;4929117;29;20215;-70
2022/10/08 01:17:35;;;;;;;9.43;5.93;;;10.60;99.90;;;;;;4922121;29;20202;-70
2022/10/08 01:20:33;;;;;;;10.10;6.47;;;10.70;99.90;;;;;;4879759;29;20204;-69
2022/10/08 01:23:20;;;;;;;5.27;4.77;;;10.60;99.90;;;;;;4921057;28;20228;-69
2022/10/08 01:26:13;;;;;;;13.73;5.90;;;10.60;99.90;;;;;;4921996;29;20193;-71
2022/10/08 01:29:03;;;;;;;6.33;5.37;;;10.70;99.90;;;;;;4915256;29;20217;-69
2022/10/08 01:31:46;;;;;;;6.77;5.00;;;10.70;99.90;;;;;;4926141;29;20209;-67
2022/10/08 01:34:38;;;;;;;7.70;5.47;;;10.60;99.90;;;;;;4918715;29;20308;-69
2022/10/08 01:37:08;;;;;;;9.37;5.33;;;10.60;99.90;;;;;;4906956;29;20574;-69
2022/10/08 01:39:37;;;;;;;9.00;5.47;;;10.60;99.90;;;;;;4917290;29;20196;-70
2022/10/08 01:42:06;;;;;;;5.50;5.00;;;10.60;99.90;;;;;;4938992;29;20194;-71
2022/10/08 01:44:46;;;;;;;9.13;5.13;;;10.60;99.90;;;;;;4928810;29;20732;-71
2022/10/08 01:47:20;;;;;;;14.33;5.83;;;10.60;99.90;;;;;;4921563;29;20256;-70
2022/10/08 01:50:04;;;;;;;9.17;5.33;;;10.60;99.90;;;;;;4925301;29;20648;-70
2022/10/08 01:52:37;;;;;;;8.43;5.10;;;10.70;99.90;;;;;;4919718;29;20290;-70
2022/10/08 01:55:11;;;;;;;8.37;5.03;;;10.70;99.90;;;;;;4909381;29;20306;-71
2022/10/08 01:57:38;;;;;;;6.70;5.33;;;10.70;99.90;;;;;;4907835;29;20219;-71
2022/10/08 02:00:12;;;;;;;8.33;5.60;;;10.70;99.90;;;;;;4927934;29;20227;-70
2022/10/08 02:02:39;;;;;;;6.63;5.70;;;10.60;99.90;;;;;;4918241;29;20210;-70
2022/10/08 02:05:05;;;;;;;7.37;5.87;;;10.60;99.90;;;;;;4934720;29;20205;-70
2022/10/08 02:07:34;;;;;;;6.27;4.87;;;10.60;99.90;;;;;;4929625;29;20257;-69
2022/10/08 02:10:13;;;;;;;6.87;5.50;;;10.60;99.90;;;;;;4946576;29;20247;-69
2022/10/08 02:12:40;;;;;;;8.50;5.53;;;10.60;99.90;;;;;;4907345;29;20211;-70
2022/10/08 02:15:35;;;;;;;5.27;4.73;;;10.60;99.90;;;;;;4946549;29;20209;-70
2022/10/08 02:18:17;;;;;;;6.83;5.87;;;10.60;99.90;;;;;;4918139;29;20261;-69
2022/10/08 02:20:57;;;;;;;8.40;5.10;;;10.60;99.90;;;;;;4930599;29;20203;-69
2022/10/08 02:23:28;;;;;;;7.30;5.93;;;10.60;99.90;;;;;;4907671;29;20211;-70
2022/10/08 02:26:00;;;;;;;9.30;5.77;;;10.60;99.90;;;;;;4908942;29;20611;-70
2022/10/08 02:28:46;;;;;;;8.30;6.40;;;10.60;99.90;;;;;;4911563;29;20214;-71
2022/10/08 02:31:22;;;;;;;6.93;6.10;;;10.60;99.90;;;;;;4925217;29;20257;-71
2022/10/08 02:33:56;;;;;;;10.50;5.60;;;10.60;99.90;;;;;;4912091;29;20600;-70
2022/10/08 02:36:27;;;;;;;8.13;5.43;;;10.60;99.90;;;;;;4926455;29;20202;-71
2022/10/08 02:39:00;;;;;;;7.63;5.73;;;10.60;99.90;;;;;;4906241;29;20234;-71
2022/10/08 02:41:48;;;;;;;7.97;5.70;;;10.60;99.90;;;;;;4908576;29;20198;-72
2022/10/08 02:44:20;;;;;;;9.70;5.23;;;10.60;99.90;;;;;;4908507;29;20651;-72
2022/10/08 02:46:49;;;;;;;6.20;5.33;;;10.60;99.90;;;;;;4907281;29;20211;-70
2022/10/08 02:49:21;;;;;;;5.83;5.30;;;10.60;99.90;;;;;;4909347;29;20195;-72
2022/10/08 02:51:48;;;;;;;7.80;5.90;;;10.60;99.90;;;;;;4913486;29;20237;-71
2022/10/08 02:54:17;;;;;;;8.10;5.63;;;10.60;99.90;;;;;;4917350;29;20215;-72
2022/10/08 02:57:00;;;;;;;7.93;5.53;;;10.60;99.90;;;;;;4933731;29;20198;-72
2022/10/08 02:59:26;;;;;;;6.57;5.93;;;10.60;99.90;;;;;;4914237;29;20770;-71
2022/10/08 03:02:03;;;;;;;8.00;5.47;;;10.60;99.90;;;;;;4933701;29;20195;-72
2022/10/08 03:04:37;;;;;;;6.03;5.43;;;10.60;99.90;;;;;;4910884;29;20950;-72
2022/10/08 03:07:04;;;;;;;7.20;5.70;;;10.60;99.90;;;;;;4913676;29;20718;-71
2022/10/08 03:09:41;;;;;;;9.00;5.80;;;10.60;99.90;;;;;;4928187;29;20701;-71
2022/10/08 03:12:06;;;;;;;11.00;6.43;;;10.50;99.90;;;;;;4926316;29;20204;-72
2022/10/08 03:14:36;;;;;;;6.80;6.20;;;10.50;99.90;;;;;;4913217;29;20212;-71
2022/10/08 03:17:02;;;;;;;5.97;5.40;;;10.50;99.90;;;;;;4921173;29;20229;-71
2022/10/08 03:19:27;;;;;;;8.27;5.87;;;10.50;99.90;;;;;;4919025;29;20710;-71
2022/10/08 03:21:55;;;;;;;7.27;5.87;;;10.50;99.90;;;;;;4921171;29;20186;-71
2022/10/08 03:24:20;;;;;;;6.97;5.47;;;10.40;99.90;;;;;;4928117;29;20190;-71
2022/10/08 03:26:46;;;;;;;8.23;6.07;;;10.40;99.90;;;;;;4927616;29;20193;-71
2022/10/08 03:29:12;;;;;;;7.63;5.47;;;10.40;99.90;;;;;;4913723;29;20211;-71
2022/10/08 03:31:38;;;;;;;6.53;5.57;;;10.40;99.90;;;;;;4946236;29;20666;-72
2022/10/08 03:34:03;;;;;;;6.67;5.27;;;10.40;99.90;;;;;;4909242;28;20264;-71
2022/10/08 03:36:30;;;;;;;6.87;6.17;;;10.40;99.90;;;;;;4934784;29;20205;-71
2022/10/08 03:38:56;;;;;;;7.13;6.03;;;10.40;99.90;;;;;;4927215;29;20223;-83
2022/10/08 03:41:21;;;;;;;6.17;5.57;;;10.40;99.90;;;;;;4934180;29;20205;-71
2022/10/08 03:43:47;;;;;;;6.17;5.43;;;10.40;99.90;;;;;;4912824;29;20215;-70
2022/10/08 03:46:14;;;;;;;6.23;5.60;;;10.50;99.90;;;;;;4914672;29;20197;-71
2022/10/08 03:48:40;;;;;;;6.47;4.93;;;10.50;99.90;;;;;;4913614;29;20401;-71
2022/10/08 03:51:15;;;;;;;5.63;4.70;;;10.50;99.90;;;;;;4937578;29;20350;-72
2022/10/08 03:53:42;;;;;;;8.03;5.77;;;10.60;99.90;;;;;;4912002;29;20231;-70
2022/10/08 03:56:11;;;;;;;7.40;5.53;;;10.60;99.90;;;;;;4933575;29;20294;-70
2022/10/08 03:58:37;;;;;;;7.23;5.30;;;10.70;99.90;;;;;;4923672;29;20211;-71
2022/10/08 04:01:05;;;;;;;7.83;5.60;;;10.70;99.90;;;;;;4933672;28;20329;-70
2022/10/08 04:03:32;;;;;;;6.23;5.63;;;10.70;99.90;;;;;;4917408;29;20288;-71
2022/10/08 04:05:58;;;;;;;7.03;5.23;;;10.80;99.90;;;;;;4919497;29;20535;-74
2022/10/08 04:08:27;;;;;;;8.57;5.80;;;10.80;99.90;;;;;;4916313;29;20811;-74
2022/10/08 04:10:53;;;;;;;8.50;5.20;;;10.90;99.90;;;;;;4946102;28;20670;-74
2022/10/08 04:13:19;;;;;;;8.77;5.30;;;10.90;99.90;;;;;;4908731;28;20222;-74
2022/10/08 04:15:47;;;;;;;6.10;5.30;;;10.90;99.90;;;;;;4936140;29;20744;-71
2022/10/08 04:18:13;;;;;;;9.47;5.73;;;10.90;99.90;;;;;;4933694;29;20207;-71
2022/10/08 04:20:41;;;;;;;10.30;5.80;;;11.00;99.90;;;;;;4932195;29;20289;-71
2022/10/08 04:23:07;;;;;;;5.20;4.27;;;11.00;99.90;;;;;;4928324;29;20189;-70
2022/10/08 04:25:35;;;;;;;6.40;4.90;;;11.00;99.90;;;;;;4945228;29;20197;-72
2022/10/08 04:28:01;;;;;;;5.23;4.77;;;11.00;99.90;;;;;;4914786;29;20201;-71
2022/10/08 04:30:26;;;;;;;7.33;5.20;;;11.00;99.90;;;;;;4937606;29;20279;-71
2022/10/08 04:32:52;;;;;;;6.43;4.63;;;11.00;99.90;;;;;;4933958;29;20284;-72
2022/10/08 04:35:17;;;;;;;6.60;4.60;;;11.00;99.90;;;;;;4915016;29;20397;-70
2022/10/08 04:37:43;;;;;;;7.43;4.67;;;11.00;99.90;;;;;;4933916;28;20210;-70
2022/10/08 04:40:08;;;;;;;7.47;4.57;;;10.90;99.90;;;;;;4907822;29;20181;-70
2022/10/08 04:42:34;;;;;;;6.20;4.10;;;10.90;99.90;;;;;;4936117;29;20216;-71
2022/10/08 04:44:59;;;;;;;10.10;4.97;;;10.90;99.90;;;;;;4914945;29;20203;-71
2022/10/08 04:47:25;;;;;;;10.43;5.20;;;10.90;99.90;;;;;;4929529;29;20305;-71
2022/10/08 04:49:50;;;;;;;6.37;4.77;;;10.90;99.90;;;;;;4917034;29;20206;-71
2022/10/08 04:52:17;;;;;;;11.03;4.57;;;10.90;99.90;;;;;;4931936;29;20223;-71
2022/10/08 04:54:43;;;;;;;6.30;4.63;;;10.80;99.90;;;;;;4907525;28;20701;-71
2022/10/08 04:57:08;;;;;;;6.07;4.97;;;10.80;99.90;;;;;;4928618;29;20202;-71
2022/10/08 04:59:34;;;;;;;8.43;4.53;;;10.80;99.90;;;;;;4913166;29;20273;-71
2022/10/08 05:01:59;;;;;;;5.73;3.87;;;10.80;99.90;;;;;;4934345;29;20197;-70
2022/10/08 05:04:25;;;;;;;9.70;5.17;;;10.80;99.90;;;;;;4914375;29;20293;-70
2022/10/08 05:06:50;;;;;;;6.93;4.10;;;10.80;99.90;;;;;;4935327;29;20210;-70
2022/10/08 05:09:16;;;;;;;5.40;3.70;;;10.80;99.90;;;;;;4910970;29;20213;-70
2022/10/08 05:11:41;;;;;;;10.40;4.37;;;10.90;99.90;;;;;;4936185;29;20210;-71
2022/10/08 05:14:07;;;;;;;8.07;4.27;;;10.90;99.90;;;;;;4920035;29;20220;-71
2022/10/08 05:16:32;;;;;;;9.40;4.27;;;10.90;99.90;;;;;;4941641;29;20674;-71
2022/10/08 05:18:58;;;;;;;7.53;4.73;;;10.90;99.90;;;;;;4920604;29;20214;-70
2022/10/08 05:21:26;;;;;;;5.47;4.13;;;10.90;99.90;;;;;;4919863;29;20180;-70
2022/10/08 05:24:07;;;;;;;9.07;4.90;;;11.00;99.90;;;;;;4920922;29;20438;-70
2022/10/08 05:26:37;;;;;;;7.27;4.47;;;11.00;99.90;;;;;;4911286;29;20269;-70
2022/10/08 05:29:03;;;;;;;9.63;4.13;;;11.10;99.90;;;;;;4909388;29;20203;-70
2022/10/08 05:31:29;;;;;;;6.50;4.20;;;11.10;99.90;;;;;;4922834;29;20612;-71
2022/10/08 05:33:55;;;;;;;9.53;4.73;;;11.10;99.90;;;;;;4922424;29;20228;-71
2022/10/08 05:36:22;;;;;;;9.50;4.53;;;11.20;99.90;;;;;;4942463;29;20232;-70
2022/10/08 05:38:48;;;;;;;5.50;4.27;;;11.20;99.90;;;;;;4921964;28;20713;-71
2022/10/08 05:41:20;;;;;;;7.20;4.77;;;11.20;99.90;;;;;;4930463;29;20193;-71
2022/10/08 05:43:46;;;;;;;8.43;4.20;;;11.20;99.90;;;;;;4909176;29;20719;-72
2022/10/08 05:46:13;;;;;;;5.23;3.90;;;11.20;99.90;;;;;;4935613;29;20205;-72
2022/10/08 05:48:39;;;;;;;6.40;4.27;;;11.20;99.90;;;;;;4926468;29;20218;-71
2022/10/08 05:51:05;;;;;;;5.10;4.57;;;11.20;99.90;;;;;;4931622;29;20268;-71
2022/10/08 05:53:32;;;;;;;8.97;4.27;;;11.20;99.90;;;;;;4927700;29;20239;-71
2022/10/08 05:55:59;;;;;;;5.43;4.30;;;11.20;99.90;;;;;;4929803;29;20685;-71
2022/10/08 05:58:25;;;;;;;9.77;4.57;;;11.20;99.90;;;;;;4936666;29;20215;-71
2022/10/08 06:00:58;;;;;;;6.17;4.17;;;11.20;99.90;;;;;;4926262;28;20214;-71
2022/10/08 06:03:23;;;;;;;5.67;3.77;;;11.20;99.90;;;;;;4935970;29;20288;-71
2022/10/08 06:05:49;;;;;;;6.77;3.97;;;11.20;99.90;;;;;;4929334;29;20213;-72
2022/10/08 06:08:14;;;;;;;6.97;3.70;;;11.20;99.90;;;;;;4931835;29;20215;-71
2022/10/08 06:10:51;;;;;;;5.93;5.10;;;11.20;99.90;;;;;;4910775;28;20191;-71
2022/10/08 06:13:17;;;;;;;7.97;3.40;;;11.30;99.90;;;;;;4918203;29;20220;-71
2022/10/08 06:15:43;;;;;;;5.60;4.17;;;11.30;99.90;;;;;;4922095;29;20198;-72
2022/10/08 06:18:08;;;;;;;5.80;4.27;;;11.30;99.90;;;;;;4929128;29;20212;-71
2022/10/08 06:20:36;;;;;;;6.97;4.67;;;11.20;99.90;;;;;;4940370;29;20189;-72
2022/10/08 06:23:02;;;;;;;6.03;3.80;;;11.30;99.90;;;;;;4936195;28;20199;-71
2022/10/08 06:25:27;;;;;;;7.23;3.77;;;11.30;99.90;;;;;;4909755;28;20182;-71
2022/10/08 06:27:53;;;;;;;9.40;5.13;;;11.30;99.90;;;;;;4927977;29;20205;-73
2022/10/08 06:30:18;;;;;;;4.27;3.77;;;11.30;99.90;;;;;;4909628;29;20187;-73
2022/10/08 06:32:44;;;;;;;6.40;4.60;;;11.30;99.90;;;;;;4936006;29;20205;-73
2022/10/08 06:35:09;;;;;;;9.20;5.00;;;11.40;99.90;;;;;;4916930;29;20210;-70
2022/10/08 06:37:35;;;;;;;5.33;4.30;;;11.40;99.90;;;;;;4938025;29;20639;-70
2022/10/08 06:40:04;;;;;;;5.43;4.03;;;11.40;99.90;;;;;;4914022;29;20552;-70
2022/10/08 06:42:29;;;;;;;8.07;4.17;;;11.40;99.90;;;;;;4922512;29;20220;-68
2022/10/08 06:44:54;;;;;;;6.73;4.43;;;11.60;99.90;;;;;;4913283;29;20566;-68
2022/10/08 06:47:20;;;;;;;9.43;5.00;;;11.70;99.90;;;;;;4920341;29;20230;-67
2022/10/08 06:49:45;;;;;;;6.93;3.90;;;11.80;99.90;;;;;;4920762;29;20210;-68
2022/10/08 06:52:11;;;;;;;9.20;4.73;;;11.90;99.90;;;;;;4925743;28;20246;-68
2022/10/08 06:54:36;;;;;;;11.83;4.43;;;12.00;99.90;;;;;;4924361;29;20224;-67
2022/10/08 06:57:02;;;;;;;7.43;4.60;;;12.00;99.90;;;;;;4934320;29;20243;-68
2022/10/08 06:59:27;;;;;;;6.53;3.80;;;12.10;99.90;;;;;;4917630;28;20209;-67
2022/10/08 07:01:53;;;;;;;6.63;3.53;;;12.10;99.90;;;;;;4924429;29;20985;-67
2022/10/08 07:04:18;;;;;;;7.07;4.33;;;12.20;99.90;;;;;;4917128;29;20245;-68
2022/10/08 07:06:44;;;;;;;7.33;4.50;;;12.20;99.90;;;;;;4927046;29;20195;-67
2022/10/08 07:09:09;;;;;;;7.23;4.70;;;12.20;99.90;;;;;;4920043;29;20228;-67
2022/10/08 07:11:36;;;;;;;7.80;4.43;;;12.20;99.90;;;;;;4943503;29;20287;-67
2022/10/08 07:14:02;;;;;;;7.87;4.93;;;12.20;99.90;;;;;;4923958;29;20302;-67
2022/10/08 07:16:28;;;;;;;9.00;4.17;;;12.20;99.90;;;;;;4935553;29;20288;-68
2022/10/08 07:18:57;;;;;;;9.10;4.97;;;12.20;99.90;;;;;;4920761;29;20207;-63
2022/10/08 07:21:22;;;;;;;4.33;3.57;;;12.20;99.90;;;;;;4931863;28;20189;-68
2022/10/08 07:23:49;;;;;;;6.00;4.50;;;12.20;99.90;;;;;;4925833;29;20218;-68
2022/10/08 07:26:17;;;;;;;7.70;3.63;;;12.30;99.90;;;;;;4945640;29;20200;-69
2022/10/08 07:28:52;;;;;;;7.90;4.20;;;12.40;99.90;;;;;;4909372;28;21006;-68
2022/10/08 07:31:23;;;;;;;11.40;4.97;;;12.50;99.90;;;;;;4927807;29;20298;-67
2022/10/08 07:33:49;;;;;;;7.23;3.07;;;12.60;99.90;;;;;;4927518;29;20222;-67
2022/10/08 07:36:17;;;;;;;6.93;3.57;;;12.70;99.90;;;;;;4935251;28;20206;-67
2022/10/08 07:38:43;;;;;;;6.40;3.57;;;12.80;99.90;;;;;;4934259;29;20202;-70
2022/10/08 07:41:10;;;;;;;5.87;3.27;;;12.80;99.90;;;;;;4945928;29;20201;-73
2022/10/08 07:43:36;;;;;;;7.37;3.40;;;12.90;99.90;;;;;;4916817;28;20787;-69
2022/10/08 07:46:03;;;;;;;6.27;3.83;;;12.90;99.90;;;;;;4916889;28;20196;-69
2022/10/08 07:48:29;;;;;;;7.30;2.90;;;12.90;99.90;;;;;;4923675;29;20214;-70
2022/10/08 07:50:55;;;;;;;6.77;3.13;;;13.00;99.90;;;;;;4922076;29;20203;-70
2022/10/08 07:53:20;;;;;;;5.00;3.33;;;13.10;99.90;;;;;;4924962;29;20229;-70
2022/10/08 07:55:46;;;;;;;6.43;3.10;;;13.20;99.90;;;;;;4915567;29;20223;-69
2022/10/08 07:58:13;;;;;;;6.67;3.30;;;13.30;99.90;;;;;;4939486;29;20191;-69
2022/10/08 08:00:39;;;;;;;7.17;3.40;;;13.30;99.90;;;;;;4919752;29;20386;-69
2022/10/08 08:03:05;;;;;;;5.53;2.73;;;13.40;99.90;;;;;;4930037;29;20195;-69
2022/10/08 08:05:34;;;;;;;5.87;2.77;;;13.50;99.90;;;;;;4918587;29;20186;-70
2022/10/08 08:07:59;;;;;;;4.13;3.17;;;13.50;99.90;;;;;;4927962;29;20247;-69
2022/10/08 08:10:25;;;;;;;7.40;2.53;;;13.60;99.90;;;;;;4926019;29;20541;-69
2022/10/08 08:12:50;;;;;;;7.13;2.67;;;13.70;99.90;;;;;;4925840;29;20194;-67
2022/10/08 08:15:16;;;;;;;6.80;2.60;;;13.70;99.90;;;;;;4927410;28;20218;-69
2022/10/08 08:17:41;;;;;;;6.47;3.00;;;13.80;99.90;;;;;;4940839;29;20260;-69
2022/10/08 08:20:07;;;;;;;7.00;3.13;;;13.90;99.90;;;;;;4926789;29;20292;-69
2022/10/08 08:22:33;;;;;;;6.70;2.57;;;13.90;99.90;;;;;;4941889;29;20201;-69
2022/10/08 08:24:58;;;;;;;6.97;2.27;;;14.00;99.90;;;;;;4918015;29;20211;-69
2022/10/08 08:27:23;;;;;;;7.73;2.93;;;14.00;99.90;;;;;;4938294;29;20236;-70
2022/10/08 08:29:49;;;;;;;8.67;2.67;;;14.10;99.90;;;;;;4913567;29;20219;-69
2022/10/08 08:32:14;;;;;;;7.50;2.73;;;14.10;99.90;;;;;;4922075;29;20242;-69
2022/10/08 08:34:40;;;;;;;5.03;2.80;;;14.10;99.90;;;;;;4913878;29;20283;-69
2022/10/08 08:37:05;;;;;;;7.47;3.30;;;14.20;99.90;;;;;;4917937;29;20202;-68
2022/10/08 08:39:32;;;;;;;7.27;2.93;;;14.30;99.90;;;;;;4914409;29;20208;-69
2022/10/08 08:42:17;;;;;;;10.23;3.40;;;14.40;99.90;;;;;;4908890;29;20199;-70
2022/10/08 08:44:57;;;;;;;8.00;3.00;;;14.60;99.90;;;;;;4908980;29;20218;-71
2022/10/08 08:47:47;;;;;;;5.80;3.07;;;14.70;99.90;;;;;;4926697;29;20218;-71
2022/10/08 08:50:50;;;;;;;6.77;3.20;;;14.60;99.90;;;;;;4909267;29;20294;-72
2022/10/08 08:53:17;;;;;;;10.33;3.37;;;14.60;99.90;;;;;;4870763;29;20237;-72
2022/10/08 08:55:46;;;;;;;6.63;3.23;;;14.60;99.90;;;;;;4911576;29;20206;-72
2022/10/08 08:58:24;;;;;;;9.60;4.30;;;14.80;99.90;;;;;;4930972;29;20202;-72
2022/10/08 09:00:58;;;;;;;9.00;4.27;;;14.90;99.90;;;;;;4920100;29;20274;-73
2022/10/08 09:03:38;;;;;;;5.67;3.63;;;14.90;99.90;;;;;;4917665;29;20203;-69
2022/10/08 09:06:10;;;;;;;8.23;3.77;;;15.00;99.90;;;;;;4914180;29;20191;-74
2022/10/08 09:08:41;;;;;;;10.17;4.07;;;15.00;99.90;;;;;;4915929;29;20217;-75
2022/10/08 09:11:12;;;;;;;8.03;4.30;;;15.00;99.90;;;;;;4918342;29;20188;-73
2022/10/08 09:14:02;;;;;;;9.60;4.17;;;15.10;99.90;;;;;;4909020;29;20266;-75
2022/10/08 09:16:28;;;;;;;8.73;3.50;;;15.20;99.90;;;;;;4920579;29;20187;-72
2022/10/08 09:18:53;;;;;;;8.27;3.57;;;15.30;99.90;;;;;;4916712;29;20203;-66
2022/10/08 09:21:19;;;;;;;8.73;3.43;;;15.40;99.90;;;;;;4920360;29;20642;-75
2022/10/08 09:23:46;;;;;;;10.00;3.53;;;15.50;99.90;;;;;;4912895;29;20208;-77
2022/10/08 09:26:21;;;;;;;6.37;3.30;;;15.40;99.90;;;;;;4922436;29;20202;-77
2022/10/08 09:28:54;;;;;;;13.20;3.33;;;15.50;99.90;;;;;;4924338;29;20258;-73
2022/10/08 09:31:28;;;;;;;7.33;3.93;;;15.50;99.90;;;;;;4914552;29;20195;-75
2022/10/08 09:34:26;;;;;;;7.23;3.70;;;15.50;99.90;;;;;;4923712;29;20223;-70
2022/10/08 09:37:03;;;;;;;13.90;4.93;;;15.50;99.90;;;;;;4921410;29;20208;-73
2022/10/08 09:39:34;;;;;;;13.13;4.20;;;15.50;99.90;;;;;;4920450;29;20204;-70
2022/10/08 09:42:06;;;;;;;9.70;3.40;;;15.50;99.90;;;;;;4920065;29;20203;-72
2022/10/08 09:44:39;;;;;;;7.43;3.40;;;15.60;99.90;;;;;;4925479;29;20757;-72
2022/10/08 09:47:09;;;;;;;9.10;3.90;;;15.70;99.90;;;;;;4922990;29;20203;-71
2022/10/08 09:49:38;;;;;;;8.13;3.97;;;15.70;99.90;;;;;;4923486;29;20219;-71
2022/10/08 09:52:12;;;;;;;10.60;4.23;;;15.70;99.90;;;;;;4930365;29;20266;-71
2022/10/08 09:54:47;;;;;;;11.03;3.80;;;15.60;99.90;;;;;;4926072;28;21209;-72
2022/10/08 09:57:19;;;;;;;6.43;3.90;;;15.60;99.90;;;;;;4912368;29;20179;-75
2022/10/08 09:59:52;;;;;;;10.50;4.03;;;15.70;99.90;;;;;;4918040;29;20214;-70
2022/10/08 10:02:32;;;;;;;10.57;3.70;;;15.90;99.90;;;;;;4922938;29;20187;-71
2022/10/08 10:04:59;;;;;;;7.23;4.10;;;16.00;99.90;;;;;;4917613;29;20997;-71
2022/10/08 10:07:42;;;;;;;9.23;5.70;;;16.10;99.90;;;;;;4937240;29;20289;-71
2022/10/08 10:10:27;;;;;;;5.63;3.00;;;16.00;99.90;;;;;;4911828;29;20207;-68
2022/10/08 10:13:09;;;;;;;12.90;7.20;;;16.00;99.90;;;;;;4912264;29;20188;-70
2022/10/08 10:15:48;;;;;;;9.77;4.57;;;16.10;99.90;;;;;;4911038;29;20290;-69
2022/10/08 10:18:21;;;;;;;11.17;6.03;;;15.80;99.90;;;;;;4928077;28;20198;-71
2022/10/08 10:20:58;;;;;;;10.70;5.83;;;15.80;99.90;;;;;;4927672;29;20199;-70
2022/10/08 10:23:44;;;;;;;9.17;4.23;;;15.80;99.90;;;;;;4915684;29;20231;-75
2022/10/08 10:26:22;;;;;;;11.80;3.67;;;15.70;99.90;;;;;;4919378;29;20186;-70
2022/10/08 10:28:59;;;;;;;7.67;4.43;;;15.80;99.90;;;;;;4916681;29;20532;-70
2022/10/08 10:31:42;;;;;;;11.03;4.60;;;15.80;99.90;;;;;;4917465;29;20188;-73
2022/10/08 10:34:22;;;;;;;13.23;3.73;;;15.70;99.90;;;;;;4913659;29;20282;-69
2022/10/08 10:36:57;;;;;;;6.87;3.73;;;15.70;99.90;;;;;;4918178;29;20187;-71
2022/10/08 10:39:38;;;;;;;7.30;3.60;;;15.70;99.90;;;;;;4910963;29;20207;-76
2022/10/08 10:42:13;;;;;;;9.83;3.83;;;15.70;99.90;;;;;;4924434;29;20235;-78
2022/10/08 10:45:07;;;;;;;7.23;4.00;;;15.60;99.90;;;;;;4913455;29;20314;-85
2022/10/08 10:47:32;;;;;;;8.40;3.60;;;15.40;99.90;;;;;;4921464;29;20197;-76
2022/10/08 10:50:00;;;;;;;9.23;3.63;;;15.40;99.90;;;;;;4919602;29;20203;-79
2022/10/08 10:52:47;;;;;;;13.87;4.20;;;15.40;99.90;;;;;;4938445;29;20721;-78
2022/10/08 10:55:38;;;;;;;5.07;3.20;;;15.30;99.90;;;;;;4922539;29;21004;-77
2022/10/08 10:58:26;;;;;;;6.80;3.37;;;15.30;99.90;;;;;;4920399;28;20203;-70
2022/10/08 11:01:03;;;;;;;5.07;2.70;;;15.30;99.90;;;;;;4929034;29;20249;-83
2022/10/08 11:03:38;;;;;;;8.50;3.43;;;15.30;99.90;;;;;;4909397;29;20411;-87
2022/10/08 11:06:29;;;;;;;7.90;4.07;;;15.30;99.90;;;;;;4913108;29;20183;-76
2022/10/08 11:09:22;;;;;;;10.13;3.43;;;15.30;99.90;;;;;;4919566;29;20225;-74
2022/10/08 11:12:13;;;;;;;3.63;2.87;;;15.10;99.90;;;;;;4919050;29;20183;-74
2022/10/08 11:14:44;;;;;;;8.80;4.53;;;15.10;99.90;;;;;;4917075;29;20231;-74
2022/10/08 11:17:24;;;;;;;7.40;3.40;;;15.00;99.90;;;;;;4908346;29;20275;-74
2022/10/08 11:20:21;;;;;;;5.10;3.07;;;15.00;99.90;;;;;;4916964;29;20274;-73
2022/10/08 11:22:50;;;;;;;7.27;3.57;;;15.00;99.90;;;;;;4923097;29;20243;-75
2022/10/08 11:25:47;;;;;;;6.70;3.47;;;14.90;99.90;;;;;;4919853;29;20215;-74
2022/10/08 11:28:37;;;;;;;8.60;4.13;;;14.90;99.90;;;;;;4934104;29;20285;-76
2022/10/08 11:31:15;;;;;;;11.57;4.33;;;15.00;99.90;;;;;;4905923;29;20266;-75
2022/10/08 11:33:43;;;;;;;9.90;4.03;;;14.80;99.90;;;;;;4921808;29;20322;-76
2022/10/08 11:36:08;;;;;;;9.07;3.97;;;14.70;99.90;;;;;;4940003;28;20194;-77
2022/10/08 11:38:43;;;;;;;7.97;4.20;;;14.60;99.90;;;;;;4928833;29;20198;-75
2022/10/08 11:41:21;;;;;;;8.53;4.53;;;14.60;99.90;;;;;;4918247;29;20196;-77
2022/10/08 11:43:59;;;;;;;9.03;3.93;;;14.50;99.90;;;;;;4922933;29;20257;-76
2022/10/08 11:46:30;;;;;;;9.90;4.17;;;14.40;99.90;;;;;;4908327;29;20188;-76
2022/10/08 11:49:08;;;;;;;9.93;4.13;;;14.50;99.90;;;;;;4906380;29;21186;-77
2022/10/08 11:51:36;;;;;;;9.57;4.20;;;14.50;99.90;;;;;;4919130;29;20281;-76
2022/10/08 11:54:16;;;;;;;6.90;4.13;;;14.70;99.90;;;;;;4925433;28;20556;-77
2022/10/08 11:56:43;;;;;;;7.07;3.83;;;14.80;99.90;;;;;;4911300;29;20195;-76
2022/10/08 11:59:22;;;;;;;8.20;4.13;;;14.80;99.90;;;;;;4935657;29;20290;-76
2022/10/08 12:02:00;;;;;;;11.53;4.70;;;14.80;99.90;;;;;;4918903;29;20190;-75
2022/10/08 12:04:37;;;;;;;13.77;5.30;;;14.80;99.90;;;;;;4923708;29;20290;-75
2022/10/08 12:07:21;;;;;;;7.50;4.13;;;14.80;99.90;;;;;;4916575;29;20195;-74
2022/10/08 12:10:04;;;;;;;6.93;4.27;;;15.10;99.90;;;;;;4924719;28;20653;-75
2022/10/08 12:12:50;;;;;;;6.97;4.67;;;15.40;99.90;;;;;;4925484;29;20299;-76
2022/10/08 12:15:37;;;;;;;8.50;4.67;;;15.60;99.90;;;;;;4913295;29;20234;-76
2022/10/08 12:18:09;;;;;;;8.90;4.60;;;15.80;99.90;;;;;;4901745;29;20334;-76
2022/10/08 12:20:39;;;;;;;11.53;4.40;;;16.00;99.90;;;;;;4919764;29;20196;-75
2022/10/08 12:23:28;;;;;;;9.10;3.80;;;16.30;99.90;;;;;;4918220;29;20233;-75
2022/10/08 12:25:59;;;;;;;8.83;4.03;;;16.30;99.90;;;;;;4918117;29;20289;-76
2022/10/08 12:28:28;;;;;;;7.53;3.77;;;16.20;99.90;;;;;;4926388;29;20188;-76
2022/10/08 12:31:00;;;;;;;7.33;4.30;;;16.00;99.90;;;;;;4918917;29;20263;-76
2022/10/08 12:33:26;;;;;;;7.03;4.27;;;15.90;99.90;;;;;;4929009;29;20273;-76
2022/10/08 12:36:10;;;;;;;11.63;4.87;;;15.70;99.90;;;;;;4917576;29;20682;-76
2022/10/08 12:39:02;;;;;;;8.37;4.13;;;15.50;99.90;;;;;;4914247;29;20206;-77
2022/10/08 12:41:32;;;;;;;6.93;4.10;;;15.30;99.90;;;;;;4915630;29;20286;-76
2022/10/08 12:44:05;;;;;;;4.30;3.60;;;15.30;99.90;;;;;;4936145;29;20268;-77
2022/10/08 12:46:51;;;;;;;6.80;4.33;;;15.30;99.90;;;;;;4922324;29;20238;-76
2022/10/08 12:49:25;;;;;;;8.07;5.40;;;15.40;99.90;;;;;;4927140;29;20206;-76
2022/10/08 12:52:09;;;;;;;7.13;4.00;;;15.50;99.90;;;;;;4923578;29;20608;-76
2022/10/08 12:54:35;;;;;;;8.80;3.60;;;15.80;99.90;;;;;;4937605;28;20214;-76
2022/10/08 12:57:10;;;;;;;5.10;2.57;;;16.40;99.90;;;;;;4915230;29;20556;-76
2022/10/08 12:59:40;;;;;;;3.97;2.40;;;17.20;99.90;;;;;;4924227;29;20206;-77
2022/10/08 13:02:35;;;;;;;7.43;2.60;;;17.70;99.90;;;;;;4930053;29;20179;-76
2022/10/08 13:05:02;;;;;;;6.03;2.13;;;17.80;99.90;;;;;;4909316;29;20212;-76
2022/10/08 13:07:30;;;;;;;6.93;2.43;;;17.80;99.90;;;;;;4937717;29;20218;-77
2022/10/08 13:09:59;;;;;;;4.40;2.40;;;18.40;99.90;;;;;;4920078;29;20214;-76